Time;durP1;ratioP1;P1;durP2;ratioP2;P2;SDS_P1;SDS_P2;PMS_P1;PMS_P2;Temp;Humidity;BMP_temperature;BMP_pressure;BME280_temperature;BME280_humidity;BME280_pressure;Samples;Min_cycle;Max_cycle;Signal;HPM_P1;HPM_P2
2021/07/08 00:01:07;;;;;;;8.73;5.50;;;;;;;15.93;100.00;96561.25;5010866;28;20029;-78
2021/07/08 00:03:33;;;;;;;7.63;5.22;;;;;;;15.87;100.00;96562.00;5009160;28;20026;-77
2021/07/08 00:05:59;;;;;;;10.38;5.45;;;;;;;15.92;100.00;96565.72;4999424;28;20141;-78
2021/07/08 00:08:25;;;;;;;7.97;5.00;;;;;;;15.88;100.00;96553.03;5008838;28;20026;-78
2021/07/08 00:10:55;;;;;;;8.80;5.60;;;;;;;15.88;100.00;96548.53;5007868;28;20030;-78
2021/07/08 00:13:23;;;;;;;9.00;4.95;;;;;;;15.79;100.00;96553.13;5006539;28;20184;-78
2021/07/08 00:15:50;;;;;;;8.13;5.60;;;;;;;15.74;100.00;96552.84;5009796;28;20598;-79
2021/07/08 00:18:17;;;;;;;15.98;6.30;;;;;;;15.64;100.00;96554.91;5007078;28;20029;-79
2021/07/08 00:20:46;;;;;;;8.38;4.75;;;;;;;15.63;100.00;96558.59;5009319;28;20520;-78
2021/07/08 00:23:13;;;;;;;7.13;5.13;;;;;;;15.67;100.00;96559.06;4991804;28;20026;-79
2021/07/08 00:25:41;;;;;;;7.45;5.03;;;;;;;15.75;100.00;96558.97;5025335;28;20405;-78
2021/07/08 00:28:09;;;;;;;11.35;5.88;;;;;;;15.72;100.00;96560.16;5024609;28;20030;-76
2021/07/08 00:30:34;;;;;;;9.57;5.25;;;;;;;15.74;100.00;96559.97;5014593;28;20096;-77
2021/07/08 00:33:00;;;;;;;9.32;5.90;;;;;;;15.73;100.00;96553.84;5009031;28;20193;-78
2021/07/08 00:35:26;;;;;;;6.50;4.72;;;;;;;15.72;100.00;96549.53;5025177;28;20469;-78
2021/07/08 00:37:52;;;;;;;9.60;6.25;;;;;;;15.67;100.00;96545.81;5008418;28;20530;-79
2021/07/08 00:40:18;;;;;;;12.10;6.32;;;;;;;15.64;100.00;96539.00;4991670;28;20037;-78
2021/07/08 00:42:44;;;;;;;8.75;6.57;;;;;;;15.64;100.00;96535.53;5005731;28;20034;-77
2021/07/08 00:45:13;;;;;;;7.50;5.90;;;;;;;15.65;100.00;96551.25;5007637;28;20492;-78
2021/07/08 00:47:39;;;;;;;8.00;5.35;;;;;;;15.66;100.00;96560.91;4988978;28;20045;-78
2021/07/08 00:50:09;;;;;;;11.48;6.10;;;;;;;15.72;100.00;96580.53;5006652;28;20021;-78
2021/07/08 00:52:36;;;;;;;12.35;7.22;;;;;;;15.75;100.00;96593.44;5009757;28;20029;-78
2021/07/08 00:55:02;;;;;;;10.00;7.13;;;;;;;15.74;100.00;96589.16;5010412;28;20030;-78
2021/07/08 00:57:28;;;;;;;7.82;6.20;;;;;;;15.70;100.00;96583.38;5006499;28;20036;-77
2021/07/08 00:59:54;;;;;;;9.75;6.13;;;;;;;15.69;100.00;96580.91;5006681;28;20030;-79
2021/07/08 01:02:21;;;;;;;9.82;6.63;;;;;;;15.72;100.00;96586.66;5008043;28;20465;-78
2021/07/08 01:04:48;;;;;;;9.75;6.60;;;;;;;15.72;100.00;96576.06;5006969;28;20054;-77
2021/07/08 01:07:22;;;;;;;9.23;5.65;;;;;;;15.75;100.00;96570.38;5008060;28;20033;-77
2021/07/08 01:09:50;;;;;;;10.48;6.53;;;;;;;15.73;100.00;96566.31;5008516;28;20030;-78
2021/07/08 01:12:16;;;;;;;11.00;6.95;;;;;;;15.70;100.00;96556.06;4997643;28;20025;-78
2021/07/08 01:14:42;;;;;;;8.77;6.25;;;;;;;15.69;100.00;96560.53;5007667;28;20038;-78
2021/07/08 01:17:09;;;;;;;10.98;6.20;;;;;;;15.52;100.00;96559.03;4997630;28;20034;-78
2021/07/08 01:19:37;;;;;;;10.25;7.43;;;;;;;15.39;100.00;96558.81;5024946;28;20029;-77
2021/07/08 01:22:04;;;;;;;10.95;7.30;;;;;;;15.29;100.00;96564.38;5008747;28;20014;-78
2021/07/08 01:24:35;;;;;;;16.58;7.82;;;;;;;15.26;100.00;96549.69;5008152;28;20752;-79
2021/07/08 01:27:02;;;;;;;12.38;7.88;;;;;;;15.29;100.00;96543.19;5007528;28;20627;-78
2021/07/08 01:29:28;;;;;;;13.18;8.38;;;;;;;15.28;100.00;96542.38;5008072;28;20022;-77
2021/07/08 01:31:54;;;;;;;9.68;6.72;;;;;;;15.29;100.00;96535.22;5008036;28;20493;-77
2021/07/08 01:34:20;;;;;;;11.70;7.40;;;;;;;15.28;100.00;96529.13;4992061;28;20122;-78
2021/07/08 01:36:46;;;;;;;13.18;7.57;;;;;;;15.32;100.00;96519.81;5017673;28;20053;-77
2021/07/08 01:39:12;;;;;;;9.13;6.90;;;;;;;15.39;100.00;96527.88;5025334;28;20481;-77
2021/07/08 01:41:38;;;;;;;8.88;6.95;;;;;;;15.40;100.00;96515.44;4988954;28;20429;-79
2021/07/08 01:44:04;;;;;;;8.77;6.80;;;;;;;15.44;100.00;96508.75;5023246;28;20116;-77
2021/07/08 01:46:30;;;;;;;11.55;5.63;;;;;;;15.43;100.00;96497.34;5003212;28;20583;-76
2021/07/08 01:48:56;;;;;;;11.02;5.68;;;;;;;15.38;100.00;96498.88;5008021;28;20032;-77
2021/07/08 01:51:22;;;;;;;9.10;6.13;;;;;;;15.33;100.00;96500.25;5003945;28;20042;-78
2021/07/08 01:53:47;;;;;;;11.20;6.82;;;;;;;15.22;100.00;96500.69;4993493;28;20103;-78
2021/07/08 01:56:13;;;;;;;11.38;7.30;;;;;;;15.17;100.00;96489.84;5001822;28;20670;-78
2021/07/08 01:58:39;;;;;;;9.50;6.72;;;;;;;15.22;100.00;96492.75;5008424;28;20477;-78
2021/07/08 02:01:05;;;;;;;11.50;7.15;;;;;;;15.17;100.00;96497.78;5007450;28;20038;-77
2021/07/08 02:03:32;;;;;;;11.35;7.15;;;;;;;15.11;100.00;96497.69;5023801;28;20083;-77
2021/07/08 02:05:57;;;;;;;12.15;6.82;;;;;;;15.04;100.00;96500.22;4991153;28;20119;-78
2021/07/08 02:08:23;;;;;;;11.50;8.05;;;;;;;15.05;100.00;96493.91;5007511;28;20408;-77
2021/07/08 02:10:49;;;;;;;10.57;6.93;;;;;;;15.14;100.00;96487.53;5024154;28;20041;-77
2021/07/08 02:13:14;;;;;;;12.23;6.97;;;;;;;15.21;100.00;96493.75;5006271;28;20952;-78
2021/07/08 02:15:40;;;;;;;10.00;7.93;;;;;;;15.15;100.00;96488.38;5007756;28;20198;-79
2021/07/08 02:18:06;;;;;;;10.57;7.55;;;;;;;15.20;100.00;96475.41;4991489;28;20471;-80
2021/07/08 02:20:32;;;;;;;12.82;9.02;;;;;;;15.12;100.00;96471.00;5003967;28;20030;-79
2021/07/08 02:22:58;;;;;;;10.98;7.78;;;;;;;15.07;100.00;96474.19;5011188;28;20495;-79
2021/07/08 02:25:26;;;;;;;11.15;8.27;;;;;;;15.06;100.00;96466.44;5006800;28;20025;-78
2021/07/08 02:27:52;;;;;;;10.82;7.53;;;;;;;15.08;100.00;96454.66;5001600;28;20040;-79
2021/07/08 02:30:24;;;;;;;11.70;8.85;;;;;;;15.11;100.00;96456.13;5012268;28;20117;-79
2021/07/08 02:32:55;;;;;;;12.50;8.05;;;;;;;15.00;100.00;96445.97;5012795;28;20084;-79
2021/07/08 02:35:27;;;;;;;14.32;8.50;;;;;;;14.98;100.00;96446.16;5024837;28;20069;-79
2021/07/08 02:37:53;;;;;;;11.52;8.80;;;;;;;14.85;100.00;96441.50;5021572;28;20036;-79
2021/07/08 02:40:23;;;;;;;14.15;9.27;;;;;;;14.94;100.00;96438.75;5013045;28;20065;-78
2021/07/08 02:42:52;;;;;;;16.42;10.48;;;;;;;14.93;100.00;96442.41;5005081;28;20457;-78
2021/07/08 02:45:24;;;;;;;12.65;10.27;;;;;;;14.92;100.00;96452.16;5009909;28;20133;-78
2021/07/08 02:47:50;;;;;;;12.60;10.45;;;;;;;14.93;100.00;96453.84;4993364;28;20042;-79
2021/07/08 02:50:17;;;;;;;12.55;10.60;;;;;;;14.98;100.00;96453.28;5006494;28;20034;-77
2021/07/08 02:52:48;;;;;;;15.20;12.13;;;;;;;14.95;100.00;96441.22;5011111;28;20038;-79
2021/07/08 02:55:15;;;;;;;14.43;11.23;;;;;;;14.93;100.00;96455.66;5010575;28;20421;-78
2021/07/08 02:57:41;;;;;;;24.25;11.88;;;;;;;14.92;100.00;96465.41;5011940;28;20461;-79
2021/07/08 03:00:09;;;;;;;13.55;11.40;;;;;;;14.94;100.00;96463.41;5012107;28;20029;-78
2021/07/08 03:02:35;;;;;;;16.75;12.45;;;;;;;14.91;100.00;96455.81;5010132;28;20096;-78
2021/07/08 03:05:02;;;;;;;16.10;12.55;;;;;;;14.88;100.00;96458.00;5012095;28;20029;-77
2021/07/08 03:07:30;;;;;;;17.83;12.10;;;;;;;14.83;100.00;96458.56;5010097;28;20026;-79
2021/07/08 03:09:55;;;;;;;19.30;12.25;;;;;;;14.80;100.00;96454.44;4993244;28;20045;-78
2021/07/08 03:12:23;;;;;;;15.82;12.57;;;;;;;14.82;100.00;96456.91;5008920;28;20038;-78
2021/07/08 03:14:49;;;;;;;18.38;12.05;;;;;;;14.82;100.00;96457.75;5028643;28;20113;-80
2021/07/08 03:17:14;;;;;;;14.98;11.40;;;;;;;14.88;100.00;96465.97;5014062;28;20060;-79
2021/07/08 03:19:40;;;;;;;16.02;10.88;;;;;;;14.89;100.00;96472.88;4997669;28;20542;-80
2021/07/08 03:22:06;;;;;;;17.13;10.32;;;;;;;14.92;100.00;96472.53;5011966;28;20033;-78
2021/07/08 03:24:32;;;;;;;13.13;9.57;;;;;;;14.86;100.00;96471.44;5014339;28;20030;-80
2021/07/08 03:26:57;;;;;;;11.60;8.65;;;;;;;14.88;100.00;96468.59;5027049;28;20529;-79
2021/07/08 03:29:23;;;;;;;13.45;8.90;;;;;;;14.92;100.00;96473.34;5011542;28;20552;-79
2021/07/08 03:31:49;;;;;;;12.20;7.90;;;;;;;15.02;100.00;96484.53;4995789;28;20396;-78
2021/07/08 03:34:17;;;;;;;10.98;6.75;;;;;;;15.00;100.00;96480.41;4998905;28;20397;-80
2021/07/08 03:36:43;;;;;;;11.98;5.82;;;;;;;15.05;100.00;96478.84;5008110;28;20472;-82
2021/07/08 03:39:09;;;;;;;8.82;6.00;;;;;;;15.11;100.00;96477.31;4996710;28;20040;-80
2021/07/08 03:41:35;;;;;;;7.28;5.15;;;;;;;15.18;100.00;96474.75;5010034;28;20026;-78
2021/07/08 03:44:02;;;;;;;8.55;5.45;;;;;;;15.18;100.00;96472.09;5027967;28;20045;-80
2021/07/08 03:46:27;;;;;;;7.45;5.38;;;;;;;15.14;100.00;96474.31;5011724;28;20121;-78
2021/07/08 03:48:53;;;;;;;8.07;5.35;;;;;;;15.07;100.00;96474.19;5011780;28;20597;-80
2021/07/08 03:51:18;;;;;;;8.65;6.63;;;;;;;15.03;100.00;96477.41;5011669;28;20132;-78
2021/07/08 03:53:44;;;;;;;8.00;6.00;;;;;;;15.06;100.00;96475.22;5017009;28;20550;-80
2021/07/08 03:56:13;;;;;;;8.20;5.55;;;;;;;15.08;100.00;96478.50;4995968;28;20041;-80
2021/07/08 03:58:40;;;;;;;11.00;5.80;;;;;;;15.15;100.00;96480.41;5028855;28;20041;-78
2021/07/08 04:01:06;;;;;;;6.00;4.55;;;;;;;15.12;100.00;96486.88;5012268;28;20475;-80
2021/07/08 04:03:33;;;;;;;8.73;5.55;;;;;;;15.16;100.00;96490.84;5011549;28;20121;-78
2021/07/08 04:06:00;;;;;;;9.60;5.45;;;;;;;15.11;100.00;96500.34;4996046;28;20053;-80
2021/07/08 04:08:26;;;;;;;7.80;5.47;;;;;;;15.10;100.00;96512.75;5013870;28;20112;-80
2021/07/08 04:10:55;;;;;;;8.95;5.45;;;;;;;15.10;100.00;96523.34;4995196;28;20121;-79
2021/07/08 04:13:21;;;;;;;10.55;6.30;;;;;;;15.16;100.00;96535.06;5013045;28;20253;-80
2021/07/08 04:15:49;;;;;;;11.45;7.43;;;;;;;15.16;100.00;96549.13;5004414;28;20026;-79
2021/07/08 04:18:18;;;;;;;7.97;5.78;;;;;;;15.20;100.00;96568.13;4996058;28;20042;-79
2021/07/08 04:20:45;;;;;;;8.02;5.72;;;;;;;15.13;100.00;96569.84;5002578;28;20042;-79
2021/07/08 04:23:13;;;;;;;11.63;6.63;;;;;;;15.21;100.00;96562.63;5010578;28;20060;-79
2021/07/08 04:25:40;;;;;;;13.98;5.80;;;;;;;15.08;100.00;96568.53;5010077;28;20029;-79
2021/07/08 04:28:07;;;;;;;8.55;5.78;;;;;;;15.07;100.00;96566.09;5017114;28;20026;-79
2021/07/08 04:30:34;;;;;;;11.02;6.57;;;;;;;15.08;100.00;96573.84;5027273;28;20038;-79
2021/07/08 04:32:59;;;;;;;9.35;5.93;;;;;;;15.16;100.00;96575.63;5010966;28;20125;-78
2021/07/08 04:35:36;;;;;;;10.55;5.75;;;;;;;15.11;100.00;96571.84;5026879;28;20493;-78
2021/07/08 04:38:03;;;;;;;8.40;5.65;;;;;;;15.18;100.00;96562.19;4995321;28;20489;-78
2021/07/08 04:40:29;;;;;;;11.18;5.85;;;;;;;15.22;100.00;96558.16;5010830;28;20028;-78
2021/07/08 04:42:55;;;;;;;10.02;6.18;;;;;;;15.26;100.00;96559.47;5028199;28;20041;-79
2021/07/08 04:45:21;;;;;;;7.57;5.90;;;;;;;15.18;100.00;96552.41;5013234;28;20382;-81
2021/07/08 04:47:47;;;;;;;7.80;5.68;;;;;;;15.07;100.00;96560.78;5016511;28;20037;-79
2021/07/08 04:50:19;;;;;;;11.55;7.70;;;;;;;15.10;100.00;96549.84;4995101;28;20037;-78
2021/07/08 04:52:47;;;;;;;16.38;10.68;;;;;;;15.10;100.00;96533.94;5010448;28;20034;-78
2021/07/08 04:55:15;;;;;;;9.82;8.00;;;;;;;15.17;100.00;96550.75;5011777;28;20489;-82
2021/07/08 04:57:41;;;;;;;9.45;7.15;;;;;;;15.21;100.00;96551.22;5010750;28;20116;-80
2021/07/08 05:00:09;;;;;;;10.73;5.72;;;;;;;15.21;100.00;96552.03;5011129;28;20125;-79
2021/07/08 05:02:42;;;;;;;8.48;6.25;;;;;;;15.24;100.00;96550.88;5010309;28;20026;-79
2021/07/08 05:05:10;;;;;;;8.55;6.47;;;;;;;15.19;100.00;96538.19;5007523;28;20123;-80
2021/07/08 05:07:37;;;;;;;9.88;7.13;;;;;;;15.20;100.00;96529.22;4995190;28;20045;-79
2021/07/08 05:10:05;;;;;;;10.18;7.07;;;;;;;15.17;100.00;96524.28;4992565;28;20605;-79
2021/07/08 05:12:31;;;;;;;10.25;7.20;;;;;;;15.19;100.00;96516.13;5001997;28;20052;-79
2021/07/08 05:14:57;;;;;;;10.85;7.43;;;;;;;15.18;100.00;96519.78;5004266;28;20129;-78
2021/07/08 05:17:23;;;;;;;11.50;6.80;;;;;;;15.21;100.00;96525.56;5014485;28;20049;-80
2021/07/08 05:19:49;;;;;;;10.23;6.53;;;;;;;15.28;100.00;96529.13;4993266;28;20034;-79
2021/07/08 05:22:18;;;;;;;9.85;6.55;;;;;;;15.39;100.00;96529.66;5010025;28;20029;-79
2021/07/08 05:24:48;;;;;;;10.88;6.35;;;;;;;15.38;100.00;96526.19;5026348;28;20030;-79
2021/07/08 05:27:31;;;;;;;10.88;6.38;;;;;;;15.24;100.00;96525.19;5003400;28;20041;-79
2021/07/08 05:29:57;;;;;;;9.93;6.10;;;;;;;15.27;100.00;96518.72;4990310;28;20038;-79
2021/07/08 05:32:23;;;;;;;11.55;8.05;;;;;;;15.38;100.00;96512.97;5010610;28;20500;-78
2021/07/08 05:34:49;;;;;;;9.52;5.57;;;;;;;15.22;100.00;96519.25;5026907;28;20117;-78
2021/07/08 05:37:15;;;;;;;8.38;5.35;;;;;;;14.96;100.00;96510.91;5002545;28;20030;-79
2021/07/08 05:39:40;;;;;;;7.68;5.25;;;;;;;14.90;100.00;96511.63;4994673;28;20128;-78
2021/07/08 05:42:06;;;;;;;8.57;5.00;;;;;;;14.96;100.00;96510.91;4997171;28;20077;-78
2021/07/08 05:44:33;;;;;;;8.07;6.13;;;;;;;15.01;100.00;96514.66;5011372;28;20096;-80
2021/07/08 05:46:59;;;;;;;10.15;7.03;;;;;;;15.02;100.00;96511.03;5011033;28;20056;-78
2021/07/08 05:49:29;;;;;;;9.93;6.57;;;;;;;15.01;100.00;96527.06;5009137;28;20026;-78
2021/07/08 05:51:56;;;;;;;11.70;6.68;;;;;;;15.05;100.00;96528.34;5009169;28;20512;-79
2021/07/08 05:54:22;;;;;;;7.97;5.32;;;;;;;14.95;100.00;96528.59;5012469;28;20125;-79
2021/07/08 05:56:50;;;;;;;8.13;4.95;;;;;;;14.93;100.00;96524.50;4992361;28;20121;-78
2021/07/08 05:59:15;;;;;;;8.65;4.57;;;;;;;14.92;100.00;96523.66;5003613;28;20033;-79
2021/07/08 06:01:41;;;;;;;7.40;5.13;;;;;;;14.98;100.00;96530.06;5026506;28;20030;-79
2021/07/08 06:04:07;;;;;;;8.48;5.05;;;;;;;14.99;100.00;96529.06;4997668;28;20032;-79
2021/07/08 06:06:46;;;;;;;9.00;5.47;;;;;;;15.06;100.00;96522.91;5014989;28;20117;-78
2021/07/08 06:09:18;;;;;;;8.10;5.55;;;;;;;15.04;100.00;96522.25;4997206;28;20030;-78
2021/07/08 06:11:44;;;;;;;11.90;6.00;;;;;;;14.97;100.00;96533.75;4997208;28;20068;-78
2021/07/08 06:14:09;;;;;;;9.27;5.82;;;;;;;15.07;100.00;96534.31;5013905;28;20030;-78
2021/07/08 06:16:40;;;;;;;8.55;6.13;;;;;;;15.20;100.00;96539.81;5013676;28;20137;-79
2021/07/08 06:19:06;;;;;;;9.07;5.63;;;;;;;15.17;100.00;96553.41;5013560;28;20504;-78
2021/07/08 06:21:32;;;;;;;11.07;5.43;;;;;;;15.05;100.00;96553.00;5011475;28;20033;-78
2021/07/08 06:23:57;;;;;;;12.43;5.25;;;;;;;15.03;100.00;96539.13;5014031;28;20030;-78
2021/07/08 06:26:23;;;;;;;8.10;4.55;;;;;;;15.10;100.00;96533.94;5012884;28;20632;-78
2021/07/08 06:28:49;;;;;;;7.18;4.90;;;;;;;15.12;100.00;96547.00;5012361;28;20052;-78
2021/07/08 06:31:14;;;;;;;8.35;4.93;;;;;;;15.15;100.00;96555.41;5015156;28;20026;-78
2021/07/08 06:33:44;;;;;;;11.25;5.10;;;;;;;15.25;100.00;96563.91;5030834;28;20061;-80
2021/07/08 06:36:10;;;;;;;9.10;5.32;;;;;;;15.32;100.00;96564.88;5014300;28;20029;-77
2021/07/08 06:38:47;;;;;;;9.70;4.57;;;;;;;15.52;100.00;96574.91;4994273;28;20026;-78
2021/07/08 06:41:14;;;;;;;8.15;4.95;;;;;;;15.57;100.00;96583.16;4994922;28;20040;-78
2021/07/08 06:43:48;;;;;;;9.07;5.38;;;;;;;15.75;100.00;96601.38;4994428;28;20034;-78
2021/07/08 06:46:17;;;;;;;10.40;6.07;;;;;;;15.83;100.00;96597.81;5022150;28;20615;-78
2021/07/08 06:48:44;;;;;;;9.55;5.63;;;;;;;15.86;100.00;96616.03;5014015;28;20100;-78
2021/07/08 06:51:10;;;;;;;9.27;5.78;;;;;;;15.95;100.00;96606.97;5006406;28;20061;-78
2021/07/08 06:53:38;;;;;;;9.63;5.80;;;;;;;16.02;100.00;96613.19;5013741;28;20127;-77
2021/07/08 06:56:05;;;;;;;8.73;6.40;;;;;;;16.06;100.00;96618.94;5014061;28;20033;-79
2021/07/08 06:58:30;;;;;;;8.88;4.95;;;;;;;16.20;100.00;96610.97;5014169;28;20080;-79
2021/07/08 07:00:56;;;;;;;7.75;5.40;;;;;;;16.24;100.00;96611.44;4996651;28;20657;-78
2021/07/08 07:03:26;;;;;;;7.05;5.03;;;;;;;16.24;100.00;96603.47;5013824;28;20408;-78
2021/07/08 07:05:52;;;;;;;7.70;4.78;;;;;;;16.52;100.00;96598.28;5013485;28;20033;-80
2021/07/08 07:08:18;;;;;;;9.05;4.90;;;;;;;16.72;100.00;96577.25;5013925;28;20064;-78
2021/07/08 07:10:43;;;;;;;9.15;5.03;;;;;;;16.70;100.00;96574.78;4997861;28;20033;-80
2021/07/08 07:13:11;;;;;;;7.82;5.10;;;;;;;16.69;100.00;96575.78;4996696;28;20116;-79
2021/07/08 07:15:39;;;;;;;7.13;4.80;;;;;;;16.54;100.00;96580.34;4994549;28;20038;-79
2021/07/08 07:18:06;;;;;;;7.50;5.28;;;;;;;16.54;100.00;96577.69;5009213;28;20779;-79
2021/07/08 07:20:32;;;;;;;9.32;4.90;;;;;;;16.49;100.00;96575.56;5011712;28;20385;-80
2021/07/08 07:22:59;;;;;;;7.60;4.80;;;;;;;16.66;100.00;96578.00;5013015;28;20018;-79
2021/07/08 07:25:26;;;;;;;8.27;4.63;;;;;;;16.76;100.00;96580.38;4995615;28;20481;-80
2021/07/08 07:27:53;;;;;;;8.00;4.63;;;;;;;16.77;100.00;96582.00;5006550;28;20157;-80
2021/07/08 07:30:22;;;;;;;6.40;4.13;;;;;;;16.87;100.00;96585.19;5014607;28;20057;-79
2021/07/08 07:32:49;;;;;;;6.88;4.97;;;;;;;16.91;100.00;96587.28;5005010;28;20034;-82
2021/07/08 07:35:15;;;;;;;8.75;3.97;;;;;;;17.04;100.00;96591.88;4996793;28;20045;-82
2021/07/08 07:37:41;;;;;;;8.02;3.90;;;;;;;17.13;100.00;96577.44;4996823;28;20037;-79
2021/07/08 07:40:09;;;;;;;10.18;4.63;;;;;;;17.11;100.00;96573.34;4996483;28;20048;-79
2021/07/08 07:42:35;;;;;;;5.25;3.63;;;;;;;17.25;100.00;96572.44;5028679;28;20088;-78
2021/07/08 07:45:06;;;;;;;7.72;3.88;;;;;;;17.35;100.00;96566.78;4996268;28;20080;-79
2021/07/08 07:47:32;;;;;;;5.20;3.35;;;;;;;17.52;100.00;96562.81;5012331;28;20068;-79
2021/07/08 07:49:59;;;;;;;6.50;3.22;;;;;;;17.58;100.00;96567.34;5012752;28;20049;-79
2021/07/08 07:52:25;;;;;;;6.25;3.33;;;;;;;17.52;100.00;96577.94;4996001;28;20034;-80
2021/07/08 07:54:51;;;;;;;5.22;3.05;;;;;;;17.50;100.00;96579.97;5008084;28;20026;-79
2021/07/08 07:57:17;;;;;;;7.70;3.55;;;;;;;17.23;100.00;96592.25;5014305;28;20067;-79
2021/07/08 07:59:46;;;;;;;6.47;3.15;;;;;;;17.37;100.00;96596.63;4992709;28;20023;-79
2021/07/08 08:02:12;;;;;;;4.95;3.10;;;;;;;17.54;100.00;96595.34;5012041;28;20401;-80
2021/07/08 08:04:56;;;;;;;4.47;2.30;;;;;;;17.58;100.00;96593.13;5009827;28;20045;-79
2021/07/08 08:10:07;;;;;;;4.97;2.63;;;;;;;17.63;100.00;96594.16;5002896;28;20076;-80
2021/07/08 08:12:34;;;;;;;4.72;2.38;;;;;;;17.65;99.61;96586.00;5011576;28;20026;-79
2021/07/08 08:15:04;;;;;;;4.43;2.60;;;;;;;17.73;100.00;96577.88;5011171;28;20057;-79
2021/07/08 08:17:30;;;;;;;4.07;2.22;;;;;;;17.80;100.00;96580.59;5017632;28;20034;-79
2021/07/08 08:19:55;;;;;;;3.50;2.20;;;;;;;17.98;99.05;96580.91;5014801;28;20030;-79
2021/07/08 08:22:21;;;;;;;5.75;2.60;;;;;;;17.90;100.00;96581.06;5004860;28;20121;-80
2021/07/08 08:24:48;;;;;;;4.45;2.60;;;;;;;17.58;97.10;96587.81;4982818;28;20030;-80
2021/07/08 08:27:14;;;;;;;4.85;2.33;;;;;;;17.46;99.16;96590.16;5007917;28;20113;-79
2021/07/08 08:29:41;;;;;;;4.18;2.55;;;;;;;17.05;100.00;96585.56;5005520;28;20128;-77
2021/07/08 08:32:07;;;;;;;3.78;2.38;;;;;;;17.02;100.00;96580.63;4995644;28;20065;-79
2021/07/08 08:34:37;;;;;;;5.97;2.58;;;;;;;17.18;100.00;96584.84;5011715;28;20022;-79
2021/07/08 08:37:03;;;;;;;4.45;2.42;;;;;;;16.92;100.00;96590.75;5006647;28;20038;-79
2021/07/08 08:39:29;;;;;;;3.88;2.38;;;;;;;17.01;100.00;96594.94;4989312;28;20068;-79
2021/07/08 08:41:54;;;;;;;4.18;2.40;;;;;;;16.98;100.00;96590.00;5008864;28;20453;-79
2021/07/08 08:44:20;;;;;;;4.78;2.83;;;;;;;17.12;100.00;96585.63;5028484;28;20033;-80
2021/07/08 08:46:50;;;;;;;5.20;2.80;;;;;;;17.01;100.00;96571.00;4995751;28;20048;-79
2021/07/08 08:49:16;;;;;;;5.40;2.95;;;;;;;17.07;100.00;96562.28;4991885;28;20448;-80
2021/07/08 08:51:42;;;;;;;5.78;2.67;;;;;;;17.17;100.00;96564.63;4997499;28;20034;-81
2021/07/08 08:54:08;;;;;;;6.03;2.67;;;;;;;17.31;100.00;96562.88;5011885;28;20124;-79
2021/07/08 08:56:34;;;;;;;4.90;2.58;;;;;;;17.43;100.00;96566.63;5009696;28;20516;-79
2021/07/08 08:59:00;;;;;;;9.82;3.13;;;;;;;17.46;100.00;96574.22;5011582;28;20443;-79
2021/07/08 09:01:25;;;;;;;5.68;3.50;;;;;;;17.31;100.00;96561.03;5011315;28;20022;-78
2021/07/08 09:03:51;;;;;;;6.15;3.70;;;;;;;17.47;100.00;96569.72;5016891;28;20053;-79
2021/07/08 09:06:17;;;;;;;5.30;3.60;;;;;;;17.53;98.82;96569.75;4994611;28;20076;-79
2021/07/08 09:08:52;;;;;;;7.28;3.70;;;;;;;17.53;100.00;96563.63;5011265;28;20113;-79
2021/07/08 09:11:21;;;;;;;7.78;3.63;;;;;;;17.48;100.00;96572.19;5017833;28;20045;-78
2021/07/08 09:14:07;;;;;;;6.60;4.05;;;;;;;17.35;100.00;96575.56;4991237;28;20029;-79
2021/07/08 09:16:34;;;;;;;9.43;3.70;;;;;;;17.37;100.00;96576.22;5006421;28;20042;-79
2021/07/08 09:19:21;;;;;;;5.95;3.47;;;;;;;17.42;100.00;96581.75;5011209;28;20034;-79
2021/07/08 09:22:01;;;;;;;7.25;3.40;;;;;;;17.29;100.00;96583.50;4999484;28;20053;-79
2021/07/08 09:24:31;;;;;;;6.40;3.58;;;;;;;17.42;100.00;96580.94;5021599;28;20030;-79
2021/07/08 09:27:04;;;;;;;7.35;3.78;;;;;;;17.43;100.00;96585.22;5010308;28;20037;-78
2021/07/08 09:29:33;;;;;;;;;;;;;;;17.16;100.00;96584.22;5011625;28;20034;-79
2021/07/08 09:32:03;;;;;;;6.90;3.10;;;;;;;17.19;100.00;96587.31;4994595;28;19913;-80
2021/07/08 09:34:35;;;;;;;5.28;3.20;;;;;;;17.38;100.00;96588.47;5027723;28;20060;-79
2021/07/08 09:37:23;;;;;;;4.97;2.78;;;;;;;17.48;100.00;96585.50;5030077;28;20069;-79
2021/07/08 09:40:01;;;;;;;6.57;4.00;;;;;;;17.63;100.00;96586.19;5007183;28;20108;-78
2021/07/08 09:42:44;;;;;;;5.15;3.22;;;;;;;17.71;100.00;96593.22;5004947;28;20054;-78
2021/07/08 09:45:15;;;;;;;5.35;3.35;;;;;;;17.90;100.00;96591.69;5030730;28;20041;-78
2021/07/08 09:47:46;;;;;;;5.97;3.70;;;;;;;17.59;100.00;96586.78;5014238;28;20041;-78
2021/07/08 09:50:25;;;;;;;9.98;7.07;;;;;;;17.68;100.00;96589.09;5013058;28;20056;-79
2021/07/08 09:53:01;;;;;;;7.90;5.60;;;;;;;17.61;100.00;96584.78;4997386;28;20511;-79
2021/07/08 09:55:33;;;;;;;6.80;4.40;;;;;;;17.55;100.00;96575.72;4995278;28;20034;-79
2021/07/08 09:58:11;;;;;;;5.25;2.97;;;;;;;17.74;100.00;96562.72;4995048;28;20041;-78
2021/07/08 10:00:37;;;;;;;4.70;2.78;;;;;;;17.81;100.00;96553.00;5014054;28;20485;-79
2021/07/08 10:03:04;;;;;;;4.07;2.80;;;;;;;17.98;100.00;96561.47;5013599;28;20036;-79
2021/07/08 10:05:31;;;;;;;5.82;3.88;;;;;;;18.09;99.11;96556.38;4991442;28;20086;-78
2021/07/08 10:07:58;;;;;;;6.88;2.55;;;;;;;18.36;99.22;96538.66;5004238;28;20062;-78
2021/07/08 10:10:24;;;;;;;7.85;3.03;;;;;;;18.49;98.59;96540.56;5007647;28;20570;-79
2021/07/08 10:12:49;;;;;;;4.68;2.90;;;;;;;18.73;98.18;96546.38;5010452;28;20118;-78
2021/07/08 10:15:16;;;;;;;14.90;6.82;;;;;;;18.77;96.69;96550.25;5006965;28;20041;-79
2021/07/08 10:17:42;;;;;;;12.38;9.65;;;;;;;19.00;96.20;96556.03;5014282;28;20061;-79
2021/07/08 10:20:12;;;;;;;7.43;4.93;;;;;;;18.53;97.97;96547.09;5014645;28;20033;-79
2021/07/08 10:22:38;;;;;;;6.20;3.67;;;;;;;18.61;96.95;96564.75;5013922;28;20113;-79
2021/07/08 10:25:05;;;;;;;9.35;5.68;;;;;;;18.74;97.60;96545.34;5013771;28;20037;-79
2021/07/08 10:27:31;;;;;;;7.47;4.30;;;;;;;18.50;98.07;96528.88;5023293;28;20029;-79
2021/07/08 10:30:04;;;;;;;5.75;3.03;;;;;;;18.49;98.76;96521.91;5014991;28;20048;-77
2021/07/08 10:32:31;;;;;;;4.22;2.78;;;;;;;18.63;97.94;96516.59;5009127;28;20037;-79
2021/07/08 10:34:56;;;;;;;3.30;2.15;;;;;;;18.61;98.02;96512.31;4998231;28;20032;-78
2021/07/08 10:37:25;;;;;;;5.57;2.55;;;;;;;18.91;96.51;96537.75;5020652;28;20034;-79
2021/07/08 10:40:05;;;;;;;4.85;2.58;;;;;;;19.06;94.70;96563.22;4998222;28;20447;-79
2021/07/08 10:42:44;;;;;;;3.83;1.98;;;;;;;18.86;95.73;96559.72;5011575;28;20036;-79
2021/07/08 10:45:22;;;;;;;5.28;2.20;;;;;;;19.10;96.70;96554.81;5013537;28;20038;-78
2021/07/08 10:48:14;;;;;;;5.13;2.67;;;;;;;19.00;95.57;96574.69;5028933;28;20065;-77
2021/07/08 10:50:48;;;;;;;5.85;2.50;;;;;;;19.07;97.08;96590.69;4995760;28;20129;-79
2021/07/08 10:53:20;;;;;;;3.30;2.20;;;;;;;19.17;95.43;96583.09;4996945;28;20109;-79
2021/07/08 10:55:49;;;;;;;3.80;2.25;;;;;;;19.21;95.21;96552.31;5013417;28;20040;-77
2021/07/08 10:58:53;;;;;;;4.10;2.17;;;;;;;19.09;93.47;96548.66;5029819;28;20409;-79
2021/07/08 11:01:25;;;;;;;4.40;2.05;;;;;;;19.13;95.21;96581.06;5014067;28;20041;-78
2021/07/08 11:03:52;;;;;;;3.20;1.93;;;;;;;19.10;95.13;96589.47;5008317;28;20092;-79
2021/07/08 11:06:33;;;;;;;5.28;2.25;;;;;;;19.43;92.20;96581.47;5010091;28;20445;-79
2021/07/08 11:09:01;;;;;;;3.88;2.05;;;;;;;19.42;92.68;96575.31;5006015;28;20029;-78
2021/07/08 11:11:27;;;;;;;3.42;1.85;;;;;;;19.64;90.54;96575.09;5030388;28;20037;-79
2021/07/08 11:14:15;;;;;;;3.10;1.65;;;;;;;19.72;88.39;96596.25;5013601;28;20404;-79
2021/07/08 11:16:42;;;;;;;2.75;1.75;;;;;;;19.58;89.99;96608.72;4995848;28;20144;-79
2021/07/08 11:19:11;;;;;;;3.22;1.83;;;;;;;19.03;91.98;96626.75;5009743;28;20030;-79
2021/07/08 11:21:49;;;;;;;6.28;1.67;;;;;;;18.81;93.22;96650.91;4994676;28;20042;-79
2021/07/08 11:24:25;;;;;;;3.33;2.13;;;;;;;18.64;94.48;96648.75;5030431;28;20040;-79
2021/07/08 11:27:02;;;;;;;4.18;1.88;;;;;;;18.65;94.46;96637.94;4996674;28;20916;-78
2021/07/08 11:29:46;;;;;;;4.05;1.70;;;;;;;18.64;94.87;96625.59;5030497;28;20104;-79
2021/07/08 11:32:57;;;;;;;3.80;2.10;;;;;;;18.51;94.62;96604.25;5012932;28;20045;-78